CDT,Max TemperatureF,Mean TemperatureF,Min TemperatureF,Max Dew PointF,MeanDew PointF,Min DewpointF,Max Humidity, Mean Humidity, Min Humidity, Max Sea Level PressureIn, Mean Sea Level PressureIn, Min Sea Level PressureIn, Max VisibilityMiles, Mean VisibilityMiles, Min VisibilityMiles, Max Wind SpeedMPH, Mean Wind SpeedMPH, Max Gust SpeedMPH,PrecipitationIn, CloudCover, Events, WindDirDegrees
2013-8-1,89,70,53,67,60,50,90,72,40,30.09,30.00,29.90,10,10,8,16,6,24,0.00,1,Thunderstorm,239
2013-8-2,75,66,57,62,60,55,96,81,57,30.08,29.97,29.89,10,9,3,8,4,,0.21,4,Rain,357
2013-8-3,79,64,51,58,53,47,100,79,33,30.22,30.13,30.08,10,6,0,10,3,17,0.00,1,Fog,355
2013-8-4,80,64,48,58,54,48,97,66,40,30.23,30.14,30.01,10,10,10,13,4,17,0.01,1,,158
2013-8-5,86,74,64,69,65,57,94,78,51,29.97,29.89,29.83,10,9,3,14,7,21,0.00,5,Rain,255
2013-8-6,88,72,55,67,62,54,97,73,43,29.88,29.82,29.77,10,8,2,15,4,16,0.00,0,,252
2013-8-7,80,70,59,62,58,54,94,73,45,30.04,29.95,29.84,10,10,8,14,7,,0.00,4,,351
2013-8-8,78,66,55,64,59,52,93,79,60,30.08,30.03,29.99,10,9,2,12,4,,0.10,4,Rain,161
2013-8-9,81,69,57,63,57,51,97,72,38,30.16,30.08,30.03,10,8,2,12,5,17,0.01,2,,338
2013-8-10,81,64,51,65,57,48,100,79,50,30.20,30.16,30.06,10,8,0,9,2,,0.11,2,Fog-Rain,201
2013-8-11,79,70,61,68,63,60,97,85,68,30.12,30.06,30.02,10,6,2,13,8,21,0.59,6,Rain-Thunderstorm,113
2013-8-12,81,68,55,61,57,53,100,84,40,30.11,30.07,30.04,10,4,0,13,2,,0.01,2,Fog,336
2013-8-13,78,64,51,58,51,44,96,68,31,30.20,30.15,30.10,10,10,6,14,6,18,0.00,0,,12
2013-8-14,75,60,46,58,51,45,96,72,41,30.23,30.18,30.13,10,10,6,9,2,,0.00,0,,187
2013-8-15,71,61,51,58,54,48,100,82,57,30.16,30.13,30.10,10,6,0,12,3,,0.00,6,Fog,124
2013-8-16,75,60,48,57,52,46,97,80,49,30.21,30.18,30.15,10,6,0,14,3,18,0.00,4,Fog,119
2013-8-17,82,66,50,57,53,47,90,67,39,30.21,30.17,30.12,10,9,6,15,5,21,0.00,0,,167
2013-8-18,82,64,48,58,53,46,93,65,36,30.16,30.10,30.04,10,10,5,17,7,23,0.00,0,,177
2013-8-19,87,76,64,67,63,58,84,69,49,30.04,29.97,29.90,10,9,6,17,9,24,0.00,1,,187
2013-8-20,89,78,69,72,69,65,87,70,55,29.92,29.89,29.86,10,10,6,14,9,17,0.00,3,,189
2013-8-21,86,78,72,72,69,66,91,76,59,29.97,29.93,29.86,10,9,4,13,8,,0.00,1,Thunderstorm,226
2013-8-22,84,75,66,72,67,64,94,80,56,30.11,30.05,29.99,10,8,2,16,7,30,0.23,4,Rain-Thunderstorm,46
2013-8-23,87,76,64,73,68,62,94,78,58,30.12,30.06,30.00,10,8,2,16,8,22,0.00,2,,121
2013-8-24,89,80,71,72,70,68,93,79,59,30.10,30.02,29.96,10,7,2,24,12,32,0.16,1,Rain,171
2013-8-25,93,83,75,74,71,69,87,69,52,30.06,30.01,29.98,10,10,9,20,13,29,0.00,0,,193
2013-8-26,93,84,75,74,71,68,82,67,50,30.01,29.96,29.88,10,10,10,16,11,24,0.00,0,,201
2013-8-27,93,84,77,76,70,65,94,66,52,29.90,29.86,29.83,10,10,3,16,11,24,0.00,0,,226
2013-8-28,93,82,71,75,71,67,94,79,51,29.99,29.95,29.90,10,6,0,10,2,,0.00,1,Fog,157
2013-8-29,93,80,66,72,67,64,90,68,39,30.00,29.94,29.88,10,10,10,14,5,20,0.00,0,,186
2013-8-30,90,79,64,72,69,63,93,74,50,29.90,29.88,29.86,10,10,6,13,5,18,0.00,0,,19
2013-8-31,89,72,57,69,64,57,100,73,41,29.90,29.84,29.78,10,9,2,32,5,41,0.00,1,Rain-Thunderstorm,248